Time;durP1;ratioP1;P1;durP2;ratioP2;P2;SDS_P1;SDS_P2;PMS_P1;PMS_P2;Temp;Humidity;BMP_temperature;BMP_pressure;BME280_temperature;BME280_humidity;BME280_pressure;Samples;Min_cycle;Max_cycle;Signal;HPM_P1;HPM_P2
2021/08/27 00:00:21;;;;;;;24.53;19.83;;;17.20;99.90;;;;;;5072336;28;20465;-63
2021/08/27 00:02:49;;;;;;;33.50;27.83;;;17.20;99.90;;;;;;5071790;28;20569;-64
2021/08/27 00:05:16;;;;;;;8.30;7.50;;;17.10;99.90;;;;;;5072437;28;20790;-63
2021/08/27 00:07:42;;;;;;;7.00;6.30;;;17.10;99.90;;;;;;5072312;28;21087;-63
2021/08/27 00:10:10;;;;;;;18.10;16.30;;;17.10;99.90;;;;;;5071737;28;20469;-62
2021/08/27 00:12:37;;;;;;;53.83;41.40;;;17.10;99.90;;;;;;5072169;28;20540;-63
2021/08/27 00:15:06;;;;;;;110.43;88.53;;;17.10;99.90;;;;;;5071723;28;20589;-63
2021/08/27 00:17:32;;;;;;;24.80;20.30;;;17.10;99.90;;;;;;5072234;28;20468;-63
2021/08/27 00:20:01;;;;;;;30.57;26.77;;;17.10;99.90;;;;;;5071358;28;20481;-63
2021/08/27 00:22:28;;;;;;;47.27;38.07;;;17.10;99.90;;;;;;5072034;28;20494;-63
2021/08/27 00:24:55;;;;;;;10.87;9.80;;;17.10;99.90;;;;;;5071528;28;20470;-63
2021/08/27 00:27:22;;;;;;;41.03;34.60;;;17.10;99.90;;;;;;5071755;28;20985;-63
2021/08/27 00:29:49;;;;;;;16.70;14.40;;;17.10;99.90;;;;;;5071421;28;20469;-63
2021/08/27 00:32:16;;;;;;;29.20;15.07;;;17.10;99.90;;;;;;5071796;28;20454;-61
2021/08/27 00:34:43;;;;;;;6.90;6.20;;;17.10;99.90;;;;;;5072015;28;20548;-61
2021/08/27 00:37:11;;;;;;;7.00;6.00;;;17.10;99.90;;;;;;5071382;28;20468;-61
2021/08/27 00:39:38;;;;;;;3.93;3.63;;;17.10;99.90;;;;;;5060162;28;20811;-61
2021/08/27 00:42:05;;;;;;;5.50;4.47;;;17.10;99.90;;;;;;5051382;28;20780;-61
2021/08/27 00:44:32;;;;;;;2.97;2.67;;;17.00;99.90;;;;;;5070970;28;20465;-61
2021/08/27 00:46:59;;;;;;;4.43;3.57;;;17.00;99.90;;;;;;5071064;28;20900;-61
2021/08/27 00:49:26;;;;;;;6.17;4.67;;;17.00;99.90;;;;;;5071805;28;20481;-61
2021/08/27 00:51:53;;;;;;;2.90;2.70;;;16.90;99.90;;;;;;5071312;28;20504;-61
2021/08/27 00:54:21;;;;;;;2.30;2.10;;;16.90;99.90;;;;;;5073354;28;20459;-62
2021/08/27 00:56:49;;;;;;;3.33;2.90;;;16.90;99.90;;;;;;5075406;28;20549;-61
2021/08/27 00:59:16;;;;;;;2.10;1.90;;;16.80;99.90;;;;;;5075061;28;20676;-61
2021/08/27 01:01:43;;;;;;;3.60;2.90;;;16.80;99.90;;;;;;5075539;28;20465;-61
2021/08/27 01:04:10;;;;;;;2.47;2.30;;;16.70;99.90;;;;;;5074610;28;20473;-62
2021/08/27 01:06:41;;;;;;;2.90;2.67;;;16.70;99.90;;;;;;5075445;28;20803;-61
2021/08/27 01:09:14;;;;;;;3.20;2.40;;;16.70;99.90;;;;;;5075080;28;20867;-61
2021/08/27 01:11:47;;;;;;;2.47;1.83;;;16.60;99.90;;;;;;5075037;28;20816;-61
2021/08/27 01:14:20;;;;;;;2.40;2.20;;;16.60;99.90;;;;;;5074573;28;20802;-61
2021/08/27 01:16:53;;;;;;;2.93;2.67;;;16.50;99.90;;;;;;5075344;28;20465;-61
2021/08/27 01:19:47;;;;;;;5.03;4.53;;;16.50;99.90;;;;;;5074696;28;21215;-61
2021/08/27 01:22:39;;;;;;;3.80;3.50;;;16.50;99.90;;;;;;5066398;28;20477;-61
2021/08/27 01:25:09;;;;;;;3.70;3.40;;;16.50;99.90;;;;;;5074184;28;20557;-62
2021/08/27 01:27:39;;;;;;;3.03;2.73;;;16.50;99.90;;;;;;5074934;28;20809;-62
2021/08/27 01:30:11;;;;;;;4.17;3.77;;;16.50;99.90;;;;;;5073911;28;20548;-61
2021/08/27 01:32:44;;;;;;;4.00;3.60;;;16.50;99.90;;;;;;5074754;28;20479;-62
2021/08/27 01:35:15;;;;;;;4.77;3.97;;;16.50;99.90;;;;;;5074677;28;20470;-61
2021/08/27 01:37:48;;;;;;;5.80;5.20;;;16.50;99.90;;;;;;5074613;28;20480;-61
2021/08/27 01:40:16;;;;;;;7.90;6.70;;;16.50;99.90;;;;;;5073826;28;20858;-62
2021/08/27 01:42:45;;;;;;;4.93;4.10;;;16.40;99.90;;;;;;5074509;28;20554;-62
2021/08/27 01:45:15;;;;;;;3.23;3.03;;;16.40;99.90;;;;;;5073955;28;20986;-61
2021/08/27 01:47:44;;;;;;;2.20;2.07;;;16.40;99.90;;;;;;5074398;28;20549;-61
2021/08/27 01:50:13;;;;;;;5.30;4.80;;;16.40;99.90;;;;;;5073949;28;20492;-60
2021/08/27 01:52:41;;;;;;;5.20;4.63;;;16.40;99.90;;;;;;5073799;28;20549;-60
2021/08/27 01:55:10;;;;;;;3.83;3.53;;;16.40;99.90;;;;;;5073784;28;20548;-61
2021/08/27 01:57:38;;;;;;;4.33;3.90;;;16.40;99.90;;;;;;5074329;28;20461;-61
2021/08/27 02:00:07;;;;;;;3.50;2.50;;;16.40;99.90;;;;;;5069872;28;20573;-63
2021/08/27 02:02:35;;;;;;;4.60;4.20;;;16.40;99.90;;;;;;5057797;28;20558;-62
2021/08/27 02:05:07;;;;;;;3.00;2.47;;;16.40;99.90;;;;;;5051631;28;20553;-61
2021/08/27 02:07:36;;;;;;;3.23;2.43;;;16.40;99.90;;;;;;5052279;28;20966;-62
2021/08/27 02:10:04;;;;;;;2.20;2.00;;;16.30;99.90;;;;;;5051841;28;20472;-62
2021/08/27 02:12:31;;;;;;;2.33;2.23;;;16.30;99.90;;;;;;5052199;28;20545;-62
2021/08/27 02:14:59;;;;;;;2.73;2.53;;;16.30;99.90;;;;;;5052443;28;20571;-62
2021/08/27 02:17:27;;;;;;;1.80;1.70;;;16.30;99.90;;;;;;5052152;28;20470;-62
2021/08/27 02:19:54;;;;;;;4.20;3.80;;;16.30;99.90;;;;;;5053421;28;20478;-62
2021/08/27 02:22:25;;;;;;;3.67;3.23;;;16.30;99.90;;;;;;5052434;28;20779;-62
2021/08/27 02:24:57;;;;;;;3.37;3.07;;;16.30;99.90;;;;;;5069756;28;20473;-62
2021/08/27 02:27:25;;;;;;;3.13;2.70;;;16.30;99.90;;;;;;5072938;28;20473;-62
2021/08/27 02:29:55;;;;;;;3.80;2.60;;;16.30;99.90;;;;;;5073788;28;20466;-62
2021/08/27 02:32:23;;;;;;;6.93;3.50;;;16.30;99.90;;;;;;5073086;28;20570;-62
2021/08/27 02:34:51;;;;;;;2.70;2.03;;;16.40;99.90;;;;;;5073486;28;20556;-62
2021/08/27 02:37:22;;;;;;;2.37;2.17;;;16.40;99.90;;;;;;5072827;28;20545;-62
2021/08/27 02:39:49;;;;;;;2.80;2.37;;;16.30;99.90;;;;;;5073470;28;20553;-62
2021/08/27 02:42:19;;;;;;;2.73;2.40;;;16.30;99.90;;;;;;5072759;28;20548;-62
2021/08/27 02:44:46;;;;;;;5.50;4.90;;;16.30;99.90;;;;;;5073287;28;20472;-62
2021/08/27 02:47:13;;;;;;;3.73;3.37;;;16.30;99.90;;;;;;5072728;28;20511;-62
2021/08/27 02:49:41;;;;;;;3.70;3.40;;;16.30;99.90;;;;;;5073399;28;20470;-62
2021/08/27 02:52:13;;;;;;;2.63;2.40;;;16.30;99.90;;;;;;5072852;28;20815;-61
2021/08/27 02:54:50;;;;;;;2.30;1.83;;;16.30;99.90;;;;;;5073371;28;20544;-62
2021/08/27 02:57:19;;;;;;;2.63;1.73;;;16.30;99.90;;;;;;5072788;28;20469;-62
2021/08/27 02:59:48;;;;;;;1.80;1.70;;;16.30;99.90;;;;;;5073237;28;20480;-61
2021/08/27 03:02:16;;;;;;;2.80;1.70;;;16.30;99.90;;;;;;5072726;28;20472;-61
2021/08/27 03:04:52;;;;;;;2.03;1.83;;;16.30;99.90;;;;;;5073072;28;20484;-61
2021/08/27 03:07:22;;;;;;;2.57;2.20;;;16.30;99.90;;;;;;5072501;28;20875;-61
2021/08/27 03:09:55;;;;;;;2.50;2.30;;;16.40;99.90;;;;;;5072865;28;21160;-61
2021/08/27 03:12:33;;;;;;;1.77;1.67;;;16.30;99.90;;;;;;5072605;28;20811;-61
2021/08/27 03:15:01;;;;;;;3.50;3.10;;;16.30;99.90;;;;;;5072617;28;20482;-61
2021/08/27 03:17:33;;;;;;;2.67;2.47;;;16.40;99.90;;;;;;5071839;28;20800;-61
2021/08/27 03:20:07;;;;;;;2.17;2.03;;;16.30;99.90;;;;;;5072882;28;20555;-61
2021/08/27 03:22:39;;;;;;;2.17;1.80;;;16.30;99.90;;;;;;5055263;28;20889;-61
2021/08/27 03:25:13;;;;;;;2.40;2.20;;;16.30;99.90;;;;;;5066155;28;20464;-61
2021/08/27 03:27:44;;;;;;;2.70;2.50;;;16.30;99.90;;;;;;5072693;28;20533;-61
2021/08/27 03:30:16;;;;;;;3.10;2.17;;;16.30;99.90;;;;;;5072753;28;20482;-61
2021/08/27 03:32:46;;;;;;;1.53;1.43;;;16.30;99.90;;;;;;5072437;28;20543;-61
2021/08/27 03:35:14;;;;;;;3.10;1.67;;;16.30;99.90;;;;;;5072722;28;20549;-61
2021/08/27 03:37:42;;;;;;;2.10;1.50;;;16.30;99.90;;;;;;5072216;28;20981;-61
2021/08/27 03:40:11;;;;;;;1.27;1.17;;;16.30;99.90;;;;;;5072716;28;20552;-61
2021/08/27 03:42:40;;;;;;;1.20;1.10;;;16.30;99.90;;;;;;5072125;28;20549;-61
2021/08/27 03:45:10;;;;;;;1.20;1.10;;;16.30;99.90;;;;;;5072616;28;20483;-61
2021/08/27 03:47:41;;;;;;;1.10;1.00;;;16.30;99.90;;;;;;5072323;28;20483;-61
2021/08/27 03:50:10;;;;;;;1.30;1.20;;;16.30;99.90;;;;;;5072379;28;20469;-61
2021/08/27 03:52:40;;;;;;;1.43;1.00;;;16.20;99.90;;;;;;5071969;28;21038;-62
2021/08/27 03:55:10;;;;;;;1.70;1.30;;;16.20;99.90;;;;;;5072400;28;20472;-62
2021/08/27 03:57:38;;;;;;;1.80;1.40;;;16.30;99.90;;;;;;5072018;28;20473;-62
2021/08/27 04:00:08;;;;;;;1.17;1.07;;;16.30;99.90;;;;;;5072417;28;20546;-62
2021/08/27 04:02:36;;;;;;;3.77;2.20;;;16.30;99.90;;;;;;5072209;28;20469;-60
2021/08/27 04:05:11;;;;;;;2.13;1.80;;;16.30;99.90;;;;;;5072492;28;20470;-61
2021/08/27 04:07:38;;;;;;;1.70;1.60;;;16.30;99.90;;;;;;5071790;28;20464;-61
2021/08/27 04:10:06;;;;;;;2.00;1.90;;;16.30;99.90;;;;;;5072503;28;20488;-61
2021/08/27 04:12:33;;;;;;;2.40;2.10;;;16.30;99.90;;;;;;5071825;28;20564;-61
2021/08/27 04:15:00;;;;;;;2.40;2.20;;;16.30;99.90;;;;;;5072289;28;20457;-61
2021/08/27 04:17:28;;;;;;;2.03;1.83;;;16.30;99.90;;;;;;5071938;28;20556;-60
2021/08/27 04:19:55;;;;;;;1.50;1.40;;;16.30;99.90;;;;;;5072119;28;20467;-61
2021/08/27 04:22:22;;;;;;;1.47;1.37;;;16.30;99.90;;;;;;5071751;28;20471;-62
2021/08/27 04:24:49;;;;;;;1.40;1.30;;;16.30;99.90;;;;;;5072190;28;20485;-61
2021/08/27 04:27:16;;;;;;;1.23;1.13;;;16.30;99.90;;;;;;5072129;28;20560;-61
2021/08/27 04:29:43;;;;;;;2.57;1.50;;;16.30;99.90;;;;;;5074211;28;20537;-61
2021/08/27 04:32:12;;;;;;;2.27;2.07;;;16.30;99.90;;;;;;5075993;28;21041;-62
2021/08/27 04:34:40;;;;;;;1.90;1.80;;;16.30;99.90;;;;;;5075455;28;20467;-61
2021/08/27 04:37:07;;;;;;;2.57;2.30;;;16.40;99.90;;;;;;5075827;28;20465;-62
2021/08/27 04:39:34;;;;;;;1.67;1.57;;;16.40;99.90;;;;;;5075463;28;20474;-62
2021/08/27 04:42:02;;;;;;;2.50;2.30;;;16.30;99.90;;;;;;5075757;28;20545;-61
2021/08/27 04:44:29;;;;;;;2.30;2.10;;;16.40;99.90;;;;;;5075244;28;20471;-62
2021/08/27 04:46:56;;;;;;;2.33;2.23;;;16.40;99.90;;;;;;5075690;28;20473;-61
2021/08/27 04:49:23;;;;;;;3.47;2.47;;;16.30;99.90;;;;;;5075664;28;20492;-62
2021/08/27 04:51:52;;;;;;;2.93;2.73;;;16.30;99.90;;;;;;5075314;28;20449;-61
2021/08/27 04:54:19;;;;;;;3.50;2.37;;;16.30;99.90;;;;;;5075622;28;20469;-61
2021/08/27 04:56:46;;;;;;;2.30;2.10;;;16.40;99.90;;;;;;5075091;28;20484;-62
2021/08/27 04:59:12;;;;;;;1.70;1.60;;;16.40;99.90;;;;;;5075509;28;20552;-61
2021/08/27 05:01:39;;;;;;;2.37;2.17;;;16.40;99.90;;;;;;5075071;28;20559;-61
2021/08/27 05:04:06;;;;;;;2.37;2.17;;;16.40;99.90;;;;;;5075461;28;20545;-62
2021/08/27 05:06:33;;;;;;;3.10;2.80;;;16.40;99.90;;;;;;5075070;28;20560;-62
2021/08/27 05:09:01;;;;;;;2.80;2.60;;;16.40;99.90;;;;;;5075428;28;20556;-61
2021/08/27 05:11:28;;;;;;;1.90;1.70;;;16.40;99.90;;;;;;5066719;28;20548;-62
2021/08/27 05:13:55;;;;;;;1.80;1.70;;;16.50;99.90;;;;;;5075283;28;20488;-61
2021/08/27 05:16:22;;;;;;;6.50;4.70;;;16.50;99.90;;;;;;5075007;28;20555;-61
2021/08/27 05:18:49;;;;;;;2.63;2.43;;;16.50;99.90;;;;;;5074652;28;20458;-61
2021/08/27 05:21:16;;;;;;;3.67;3.37;;;16.40;99.90;;;;;;5075088;28;20553;-61
2021/08/27 05:23:43;;;;;;;3.13;2.80;;;16.50;99.90;;;;;;5074355;28;20499;-61
2021/08/27 05:26:12;;;;;;;3.30;3.00;;;16.40;99.90;;;;;;5074902;28;20470;-61
2021/08/27 05:28:39;;;;;;;9.60;8.07;;;16.50;99.90;;;;;;5074503;28;20483;-60
2021/08/27 05:31:05;;;;;;;7.30;6.33;;;16.50;99.90;;;;;;5074858;28;20466;-61
2021/08/27 05:33:32;;;;;;;5.60;5.10;;;16.50;99.90;;;;;;5074319;28;20470;-61
2021/08/27 05:35:59;;;;;;;4.97;4.47;;;16.50;99.90;;;;;;5074645;28;20471;-61
2021/08/27 05:38:26;;;;;;;4.60;3.60;;;16.50;99.90;;;;;;5074590;28;20475;-62
2021/08/27 05:40:53;;;;;;;3.83;3.53;;;16.50;99.90;;;;;;5073925;28;20458;-62
2021/08/27 05:43:21;;;;;;;4.27;3.97;;;16.50;99.90;;;;;;5074802;28;20545;-61
2021/08/27 05:45:48;;;;;;;3.80;3.50;;;16.60;99.90;;;;;;5074052;28;20565;-61
2021/08/27 05:48:15;;;;;;;3.13;2.93;;;16.60;99.90;;;;;;5074361;28;20472;-61
2021/08/27 05:50:42;;;;;;;6.50;4.77;;;16.60;99.90;;;;;;5074124;28;20460;-61
2021/08/27 05:53:09;;;;;;;5.57;5.07;;;16.60;99.90;;;;;;5074314;28;21022;-61
2021/08/27 05:55:35;;;;;;;4.87;4.47;;;16.60;99.90;;;;;;5074162;28;20499;-60
2021/08/27 05:58:02;;;;;;;7.47;6.87;;;16.60;99.90;;;;;;5074222;28;20545;-62
2021/08/27 06:00:31;;;;;;;6.10;5.60;;;16.60;99.90;;;;;;5074264;28;20494;-62
2021/08/27 06:02:58;;;;;;;4.20;3.90;;;16.60;99.90;;;;;;5074226;28;21550;-61
2021/08/27 06:05:25;;;;;;;4.93;3.50;;;16.60;99.90;;;;;;5073979;28;20625;-61
2021/08/27 06:07:52;;;;;;;3.80;3.50;;;16.60;99.90;;;;;;5073740;28;20553;-61
2021/08/27 06:10:19;;;;;;;3.80;2.90;;;16.70;99.90;;;;;;5074286;28;20907;-62
2021/08/27 06:12:46;;;;;;;3.83;3.40;;;16.80;99.90;;;;;;5073388;28;20475;-61
2021/08/27 06:15:15;;;;;;;4.47;2.60;;;16.90;99.90;;;;;;5073786;28;20584;-61
2021/08/27 06:17:43;;;;;;;2.87;2.70;;;16.90;99.90;;;;;;5073054;28;20557;-62
2021/08/27 06:20:11;;;;;;;3.87;3.23;;;17.00;99.90;;;;;;5072989;28;20477;-60
2021/08/27 06:22:38;;;;;;;2.80;2.60;;;17.00;99.90;;;;;;5073370;28;20478;-61
2021/08/27 06:25:07;;;;;;;3.10;2.87;;;17.10;99.90;;;;;;5074032;28;20621;-61
2021/08/27 06:27:35;;;;;;;5.87;5.37;;;17.20;99.90;;;;;;5073709;28;20463;-61
2021/08/27 06:30:02;;;;;;;6.23;5.73;;;17.20;99.90;;;;;;5073155;28;20549;-62
2021/08/27 06:32:29;;;;;;;4.00;3.70;;;17.10;99.90;;;;;;5073719;28;20500;-61
2021/08/27 06:34:58;;;;;;;4.67;4.27;;;17.10;99.90;;;;;;5073143;28;20467;-61
2021/08/27 06:40:07;;;;;;;4.00;3.70;;;17.10;99.90;;;;;;5072036;28;20513;-62
2021/08/27 06:42:34;;;;;;;3.10;2.70;;;17.10;99.90;;;;;;5073625;28;20468;-61
2021/08/27 06:45:01;;;;;;;3.67;3.37;;;17.10;99.90;;;;;;5072897;28;20538;-62
2021/08/27 06:47:28;;;;;;;2.70;2.50;;;17.00;99.90;;;;;;5073497;28;20532;-62
2021/08/27 06:49:55;;;;;;;2.67;2.47;;;17.00;99.90;;;;;;5072993;28;20548;-61
2021/08/27 06:52:23;;;;;;;2.40;2.30;;;17.00;99.90;;;;;;5072328;28;20461;-62
2021/08/27 06:54:50;;;;;;;2.53;2.33;;;17.00;99.90;;;;;;5072796;28;20541;-62
2021/08/27 06:57:17;;;;;;;2.97;2.70;;;17.00;99.90;;;;;;5073326;28;20543;-62
2021/08/27 06:59:44;;;;;;;2.47;2.27;;;16.90;99.90;;;;;;5072670;28;20544;-61
2021/08/27 07:02:10;;;;;;;3.33;2.87;;;16.90;99.90;;;;;;5073100;28;20548;-61
2021/08/27 07:04:37;;;;;;;3.17;2.87;;;16.90;99.90;;;;;;5073074;28;20462;-62
2021/08/27 07:07:04;;;;;;;6.17;2.97;;;16.90;99.90;;;;;;5072375;28;20542;-62
2021/08/27 07:09:33;;;;;;;3.50;2.50;;;16.90;99.90;;;;;;5073016;28;20477;-62
2021/08/27 07:11:59;;;;;;;2.53;2.37;;;16.90;99.90;;;;;;5072685;28;20491;-60
2021/08/27 07:14:26;;;;;;;3.50;3.20;;;16.90;99.90;;;;;;5072865;28;20480;-62
2021/08/27 07:16:53;;;;;;;3.47;2.80;;;17.00;99.90;;;;;;5072394;28;20533;-62
2021/08/27 07:19:20;;;;;;;3.47;3.17;;;17.00;99.90;;;;;;5072803;28;20983;-61
2021/08/27 07:21:47;;;;;;;2.37;2.17;;;17.00;99.90;;;;;;5072246;28;20561;-61
2021/08/27 07:24:14;;;;;;;4.47;2.37;;;16.90;99.90;;;;;;5073036;28;20476;-60
2021/08/27 07:26:42;;;;;;;2.73;2.17;;;17.00;99.90;;;;;;5072683;28;20991;-61
2021/08/27 07:29:09;;;;;;;2.13;2.00;;;17.00;99.90;;;;;;5072460;28;20473;-61
2021/08/27 07:31:36;;;;;;;2.40;2.20;;;17.00;99.90;;;;;;5072724;28;20545;-61
2021/08/27 07:34:02;;;;;;;2.20;2.00;;;17.10;99.90;;;;;;5072217;28;20558;-61
2021/08/27 07:36:29;;;;;;;2.83;2.63;;;17.10;99.90;;;;;;5072743;28;20561;-61
2021/08/27 07:38:56;;;;;;;4.17;3.87;;;17.20;99.90;;;;;;5072123;28;20656;-61
2021/08/27 07:41:23;;;;;;;5.00;4.53;;;17.20;99.90;;;;;;5072795;28;20552;-62
2021/08/27 07:43:51;;;;;;;3.70;3.20;;;17.20;99.90;;;;;;5072237;28;20465;-61
2021/08/27 07:46:18;;;;;;;2.60;2.40;;;17.30;99.90;;;;;;5072286;28;20458;-61
2021/08/27 07:48:45;;;;;;;2.70;2.50;;;17.40;99.90;;;;;;5072567;28;20891;-62
2021/08/27 07:51:12;;;;;;;3.07;2.80;;;17.40;99.90;;;;;;5072136;28;20454;-62
2021/08/27 07:53:38;;;;;;;2.47;2.27;;;17.40;99.90;;;;;;5072509;28;20555;-61
2021/08/27 07:56:05;;;;;;;2.50;2.30;;;17.50;99.90;;;;;;5071779;28;20545;-61
2021/08/27 07:58:32;;;;;;;2.47;2.27;;;17.50;99.90;;;;;;5072491;28;20545;-61
2021/08/27 08:01:01;;;;;;;2.80;2.37;;;17.50;99.90;;;;;;5072028;28;20545;-62
2021/08/27 08:03:28;;;;;;;1.67;1.57;;;17.60;99.90;;;;;;5074904;28;20508;-62
2021/08/27 08:05:55;;;;;;;1.50;1.40;;;17.60;99.90;;;;;;5076050;28;20545;-60
2021/08/27 08:08:22;;;;;;;1.80;1.70;;;17.60;99.90;;;;;;5076203;28;20565;-61
2021/08/27 08:10:48;;;;;;;1.80;1.70;;;17.70;99.90;;;;;;5075887;28;20492;-61
2021/08/27 08:13:15;;;;;;;1.30;1.20;;;17.70;99.90;;;;;;5076508;28;20553;-61
2021/08/27 08:15:42;;;;;;;1.40;1.30;;;17.70;99.90;;;;;;5076227;28;20462;-61
2021/08/27 08:18:10;;;;;;;1.57;1.40;;;17.80;99.90;;;;;;5075749;28;20545;-61
2021/08/27 08:20:37;;;;;;;3.17;1.00;;;17.80;99.90;;;;;;5076013;28;20466;-62
2021/08/27 08:23:04;;;;;;;1.40;1.13;;;17.90;99.90;;;;;;5075712;28;20501;-61
2021/08/27 08:25:34;;;;;;;0.83;0.83;;;17.90;99.90;;;;;;5076249;28;20480;-61
2021/08/27 08:28:01;;;;;;;1.37;1.13;;;18.00;99.90;;;;;;5075546;28;20539;-61
2021/08/27 08:30:28;;;;;;;2.07;1.90;;;18.10;99.90;;;;;;5076077;28;20476;-60
2021/08/27 08:32:55;;;;;;;1.83;1.53;;;18.20;99.90;;;;;;5075592;28;20484;-61
2021/08/27 08:35:23;;;;;;;1.30;1.20;;;18.30;99.90;;;;;;5075939;28;20470;-61
2021/08/27 08:37:50;;;;;;;0.93;0.90;;;18.40;99.90;;;;;;5075719;28;20553;-61
2021/08/27 08:40:17;;;;;;;1.03;0.90;;;18.40;99.90;;;;;;5075619;28;21227;-61
2021/08/27 08:42:44;;;;;;;2.07;1.17;;;18.50;99.90;;;;;;5075788;28;20545;-61
2021/08/27 08:45:12;;;;;;;1.47;1.30;;;18.50;99.90;;;;;;5075101;28;20612;-60
2021/08/27 08:47:43;;;;;;;1.30;1.20;;;18.50;99.90;;;;;;5075807;28;20545;-61
2021/08/27 08:50:11;;;;;;;2.83;1.43;;;18.50;99.90;;;;;;5075011;28;20481;-61
2021/08/27 08:52:42;;;;;;;1.47;1.30;;;18.50;99.90;;;;;;5075385;28;20541;-61
2021/08/27 08:55:09;;;;;;;2.23;1.00;;;18.50;99.90;;;;;;5075211;28;20465;-61
2021/08/27 08:57:36;;;;;;;1.50;1.40;;;18.60;99.90;;;;;;5075518;28;20512;-60
2021/08/27 09:00:04;;;;;;;1.27;0.80;;;18.60;99.90;;;;;;5074931;28;20974;-61
2021/08/27 09:02:31;;;;;;;1.67;0.90;;;18.70;99.90;;;;;;5075410;28;20573;-61
2021/08/27 09:04:58;;;;;;;1.03;0.90;;;18.60;99.90;;;;;;5074967;28;20466;-61
2021/08/27 09:07:25;;;;;;;0.97;0.87;;;18.60;99.90;;;;;;5074998;28;20466;-61
2021/08/27 09:09:53;;;;;;;0.93;0.93;;;18.70;99.90;;;;;;5075290;28;20474;-61
2021/08/27 09:12:21;;;;;;;1.47;1.00;;;18.60;99.90;;;;;;5074869;28;20800;-61
2021/08/27 09:15:00;;;;;;;2.53;1.10;;;18.60;99.90;;;;;;5074434;28;20545;-61
2021/08/27 09:17:34;;;;;;;1.73;0.97;;;18.70;99.90;;;;;;5075139;28;20558;-61
2021/08/27 09:20:04;;;;;;;1.60;1.00;;;18.70;99.90;;;;;;5075104;28;20469;-61
2021/08/27 09:22:48;;;;;;;1.20;1.10;;;18.80;99.90;;;;;;5074731;28;20458;-61
2021/08/27 09:25:18;;;;;;;1.17;1.07;;;18.80;99.90;;;;;;5074402;28;20468;-60
2021/08/27 09:28:16;;;;;;;3.43;1.00;;;18.90;99.90;;;;;;5074969;28;20550;-60
2021/08/27 09:30:54;;;;;;;1.67;1.20;;;19.00;99.90;;;;;;4993903;28;20536;-60
2021/08/27 09:33:23;;;;;;;2.77;0.90;;;19.00;99.90;;;;;;5062408;28;20980;-60
2021/08/27 09:35:58;;;;;;;2.13;0.90;;;19.10;99.90;;;;;;5074780;28;20473;-60
2021/08/27 09:38:27;;;;;;;1.20;1.00;;;19.20;99.90;;;;;;5074179;28;21293;-61
2021/08/27 09:41:03;;;;;;;0.80;0.67;;;19.30;99.90;;;;;;5074902;28;20808;-61
2021/08/27 09:43:30;;;;;;;0.83;0.80;;;19.40;99.90;;;;;;5074425;28;20541;-61
2021/08/27 09:45:57;;;;;;;1.10;1.00;;;19.50;99.90;;;;;;5074386;28;20466;-61
2021/08/27 09:48:25;;;;;;;1.17;0.90;;;19.60;99.90;;;;;;5074025;28;20864;-62
2021/08/27 09:50:51;;;;;;;4.07;1.30;;;19.70;99.90;;;;;;5074378;28;21063;-61
2021/08/27 09:53:19;;;;;;;1.30;1.10;;;19.70;99.90;;;;;;5074085;28;20841;-62
2021/08/27 09:55:58;;;;;;;1.47;0.97;;;19.70;99.90;;;;;;5074266;28;20470;-62
2021/08/27 09:58:27;;;;;;;3.53;1.27;;;19.70;99.10;;;;;;5073686;28;20553;-60
2021/08/27 10:01:05;;;;;;;1.30;0.90;;;19.70;98.70;;;;;;5074530;28;20486;-60
2021/08/27 10:03:32;;;;;;;2.30;1.13;;;19.70;98.80;;;;;;5073917;28;20482;-61
2021/08/27 10:06:02;;;;;;;1.70;0.80;;;19.70;99.00;;;;;;5074190;28;20884;-61
2021/08/27 10:08:32;;;;;;;4.87;3.13;;;19.70;99.50;;;;;;5073215;28;20469;-61
2021/08/27 10:11:16;;;;;;;3.13;2.73;;;19.70;99.70;;;;;;5074216;28;20474;-61
2021/08/27 10:13:44;;;;;;;1.57;1.20;;;19.70;99.40;;;;;;5073849;28;20477;-61
2021/08/27 10:16:11;;;;;;;1.20;1.03;;;19.70;99.10;;;;;;5073846;28;20497;-60
2021/08/27 10:18:38;;;;;;;1.27;0.83;;;19.70;99.10;;;;;;5073319;28;20956;-60
2021/08/27 10:21:06;;;;;;;1.40;0.87;;;19.70;98.90;;;;;;5073740;28;21037;-61
2021/08/27 10:23:33;;;;;;;1.57;1.10;;;19.80;99.10;;;;;;5073332;28;20466;-61
2021/08/27 10:26:10;;;;;;;2.03;0.90;;;19.80;99.00;;;;;;5072871;28;20462;-60
2021/08/27 10:28:38;;;;;;;1.20;1.10;;;19.80;99.00;;;;;;5073314;28;20967;-61
2021/08/27 10:31:06;;;;;;;1.43;1.33;;;19.80;99.10;;;;;;5073726;28;20545;-60
2021/08/27 10:34:04;;;;;;;4.77;1.30;;;19.70;99.20;;;;;;5073202;28;20541;-61
2021/08/27 10:36:45;;;;;;;5.93;1.20;;;19.80;99.70;;;;;;5072802;28;20468;-61
2021/08/27 10:39:31;;;;;;;2.23;1.33;;;19.80;99.50;;;;;;5068085;28;20470;-61
2021/08/27 10:41:58;;;;;;;1.27;1.07;;;19.60;99.80;;;;;;5055930;28;20481;-60
2021/08/27 10:44:46;;;;;;;1.33;1.20;;;19.60;99.90;;;;;;5073074;28;20863;-60
2021/08/27 10:47:15;;;;;;;1.57;1.47;;;19.50;99.80;;;;;;5044434;28;20475;-61
2021/08/27 10:49:57;;;;;;;2.23;2.00;;;19.40;99.40;;;;;;5019982;28;20814;-62
2021/08/27 10:52:33;;;;;;;2.33;1.87;;;19.40;99.20;;;;;;5024284;28;20555;-62
2021/08/27 10:55:15;;;;;;;1.60;1.50;;;19.30;99.30;;;;;;5035586;28;20475;-61
2021/08/27 10:57:56;;;;;;;1.40;1.30;;;19.30;99.40;;;;;;5046307;28;20482;-60
2021/08/27 11:00:41;;;;;;;1.93;1.83;;;19.30;99.80;;;;;;5038909;28;20842;-61
2021/08/27 11:03:11;;;;;;;2.50;2.30;;;19.30;99.70;;;;;;5051917;28;21560;-62
2021/08/27 11:05:44;;;;;;;2.63;2.23;;;19.30;99.10;;;;;;5048157;28;20499;-60
2021/08/27 11:08:13;;;;;;;3.50;2.20;;;19.30;99.10;;;;;;5032623;28;20886;-60
2021/08/27 11:10:42;;;;;;;3.50;3.13;;;19.20;99.30;;;;;;5033013;28;20461;-62
2021/08/27 11:13:15;;;;;;;2.20;2.00;;;19.20;99.60;;;;;;5043583;28;20466;-60
2021/08/27 11:15:43;;;;;;;1.97;1.87;;;19.20;99.90;;;;;;5035558;28;20464;-61
2021/08/27 11:18:22;;;;;;;2.20;2.00;;;19.20;99.90;;;;;;5032319;28;20563;-61
2021/08/27 11:20:50;;;;;;;7.30;3.07;;;19.30;99.90;;;;;;5032373;28;20510;-61
2021/08/27 11:23:18;;;;;;;2.10;2.00;;;19.30;99.90;;;;;;5031220;28;21010;-62
2021/08/27 11:26:00;;;;;;;2.87;2.23;;;19.30;99.90;;;;;;5031726;28;20461;-61
2021/08/27 11:28:28;;;;;;;4.30;1.63;;;19.30;99.90;;;;;;5033055;28;20499;-62
2021/08/27 11:31:03;;;;;;;2.33;2.13;;;19.40;99.60;;;;;;5032164;28;20539;-62
2021/08/27 11:33:54;;;;;;;1.93;1.83;;;19.50;98.80;;;;;;5032680;28;20525;-62
2021/08/27 11:36:22;;;;;;;1.60;1.50;;;19.50;98.90;;;;;;5032321;28;20464;-62
2021/08/27 11:38:55;;;;;;;1.50;1.40;;;19.60;98.70;;;;;;5032185;28;20891;-61
2021/08/27 11:41:23;;;;;;;2.00;1.40;;;19.70;98.00;;;;;;5031843;28;20468;-62
2021/08/27 11:44:05;;;;;;;1.37;1.27;;;19.70;97.60;;;;;;5032367;28;20555;-62
2021/08/27 11:46:34;;;;;;;2.30;1.23;;;19.80;97.50;;;;;;5047740;28;20601;-61
2021/08/27 11:49:10;;;;;;;1.20;1.10;;;19.80;97.70;;;;;;5052631;28;20982;-62
2021/08/27 11:51:42;;;;;;;1.30;1.20;;;19.80;98.00;;;;;;5052224;28;20538;-61
2021/08/27 11:54:20;;;;;;;4.70;2.23;;;19.80;98.10;;;;;;5052441;28;20471;-61
2021/08/27 11:56:55;;;;;;;1.63;1.00;;;19.70;98.10;;;;;;5052086;28;20467;-61
2021/08/27 11:59:26;;;;;;;0.90;0.90;;;19.70;98.20;;;;;;5052346;28;20537;-61
2021/08/27 12:01:53;;;;;;;1.43;1.33;;;19.70;98.10;;;;;;5052113;28;20538;-62
2021/08/27 12:04:30;;;;;;;1.77;1.50;;;19.60;98.60;;;;;;5052360;28;20551;-60
2021/08/27 12:07:05;;;;;;;1.87;1.77;;;19.50;98.70;;;;;;5052083;28;21622;-61
2021/08/27 12:09:32;;;;;;;1.43;1.00;;;19.50;99.20;;;;;;5052277;28;20983;-60
2021/08/27 12:11:59;;;;;;;1.00;0.93;;;19.40;99.10;;;;;;5051817;28;20554;-61
2021/08/27 12:14:47;;;;;;;1.60;1.37;;;19.40;98.60;;;;;;5052294;28;20549;-61
2021/08/27 12:17:21;;;;;;;1.40;1.30;;;19.50;98.40;;;;;;5052445;28;20535;-61
2021/08/27 12:19:51;;;;;;;1.20;1.07;;;19.60;98.10;;;;;;5052037;28;20904;-62
2021/08/27 12:22:21;;;;;;;1.40;1.27;;;19.60;97.50;;;;;;5052122;28;20542;-61
2021/08/27 12:24:50;;;;;;;1.10;1.00;;;19.70;97.20;;;;;;5051791;28;20940;-61
2021/08/27 12:27:16;;;;;;;2.33;2.00;;;19.80;97.30;;;;;;5052007;28;20463;-62
2021/08/27 12:29:43;;;;;;;6.33;3.57;;;19.90;98.10;;;;;;5051565;28;20481;-62
2021/08/27 12:32:18;;;;;;;4.63;3.80;;;19.90;98.90;;;;;;5052049;28;20468;-62
2021/08/27 12:34:46;;;;;;;6.37;2.30;;;19.90;99.00;;;;;;5051436;28;20487;-63
2021/08/27 12:37:16;;;;;;;5.43;1.80;;;19.90;99.10;;;;;;5051996;28;20972;-63
2021/08/27 12:39:44;;;;;;;1.73;1.13;;;19.80;98.40;;;;;;5051519;28;20573;-62
2021/08/27 12:42:12;;;;;;;1.37;1.10;;;19.70;97.00;;;;;;5051723;28;20465;-62
2021/08/27 12:44:57;;;;;;;1.30;1.20;;;19.70;97.30;;;;;;5051472;28;20475;-62
2021/08/27 12:47:33;;;;;;;1.10;1.00;;;19.60;97.40;;;;;;5052058;28;20474;-61
2021/08/27 12:50:02;;;;;;;1.30;0.70;;;19.60;97.50;;;;;;5053238;28;20530;-61
2021/08/27 12:52:30;;;;;;;1.67;1.10;;;19.50;96.50;;;;;;5055471;28;20463;-62
2021/08/27 12:54:57;;;;;;;1.20;1.10;;;19.40;96.60;;;;;;5055095;28;20542;-61
2021/08/27 12:57:24;;;;;;;1.30;1.20;;;19.40;96.90;;;;;;5055628;28;20538;-61
2021/08/27 13:00:02;;;;;;;1.03;0.93;;;19.40;97.20;;;;;;5054944;28;20499;-61